Station Historical Data
Daily Summary for December 5, 2017 Units:  Metric    English   Both
« Previous Day
Next Day »
Daily Weekly Monthly Yearly Custom
  High: Low: Average:
Temperature: 16.3 °C 3.9 °C 9 °C
Dew Point: 4.7 °C -11.7 °C -2.9 °C
Humidity: 73 % 20 % 45 %
Wind Speed: 38.6 km/h 0 km/h 3.7 km/h
Wind Gust: 54.7 km/h - -
Wind:- - East
Pressure: 1027.7 hPa 1023.9 hPa -
Precipitation: 0 mm    
Historical Graphs
 
 
Tabular Data for December 5, 2017
Time Temperature Dew Point Pressure Wind Wind Speed Wind Gust Humidity Rainfall Rate (Hourly) solar
00:05 4.9 °C -6.1 °C 1027.3 hPa East 1.6 km/h 27.4 km/h 45 % 0 mm 0.00 W/m2
00:10 4.9 °C -6.3 °C 1027.3 hPa ENE 16.1 km/h 17.7 km/h 44 % 0 mm 0.00 W/m2
00:15 5.1 °C -5.3 °C 1027 hPa Calm   20.9 km/h 47 % 0 mm 0.00 W/m2
00:20 5.2 °C -5.2 °C 1027 hPa Calm   17.7 km/h 47 % 0 mm 0.00 W/m2
00:25 5.2 °C -6.1 °C 1027 hPa Calm   9.7 km/h 44 % 0 mm 0.00 W/m2
00:30 5.2 °C -6.3 °C 1027 hPa Calm   9.7 km/h 43 % 0 mm 0.00 W/m2
00:35 5.2 °C -6.1 °C 1027 hPa ENE 1.6 km/h 12.9 km/h 44 % 0 mm 0.00 W/m2
00:40 5.2 °C -5.8 °C 1027 hPa NE 6.4 km/h 9.7 km/h 45 % 0 mm 0.00 W/m2
00:45 5.2 °C -5.5 °C 1027 hPa Calm   16.1 km/h 46 % 0 mm 0.00 W/m2
00:50 5.1 °C -5.6 °C 1027 hPa East 3.2 km/h 12.9 km/h 46 % 0 mm 0.00 W/m2
00:55 4.9 °C -5.2 °C 1027 hPa ENE 3.2 km/h 20.9 km/h 48 % 0 mm 0.00 W/m2
01:00 4.8 °C -5.8 °C 1027 hPa ENE 11.3 km/h 16.1 km/h 46 % 0 mm 0.00 W/m2
01:05 4.6 °C -5.4 °C 1027 hPa Calm     48 % 0 mm 0.00 W/m2
01:11 4.5 °C -6.4 °C 1026.6 hPa Calm   3.2 km/h 45 % 0 mm 0.00 W/m2
01:16 4.4 °C -5.3 °C 1026.6 hPa Calm   11.3 km/h 49 % 0 mm 0.00 W/m2
01:21 4.4 °C -5.1 °C 1026.6 hPa Calm   8 km/h 50 % 0 mm 0.00 W/m2
01:26 4.3 °C -5.8 °C 1026.6 hPa East 6.4 km/h 6.4 km/h 48 % 0 mm 0.00 W/m2
01:31 4.2 °C -5.1 °C 1026.6 hPa Calm     51 % 0 mm 0.00 W/m2
01:36 4 °C -6 °C 1027 hPa Calm     48 % 0 mm 0.00 W/m2
01:41 3.9 °C -6.3 °C 1027 hPa Calm     47 % 0 mm 0.00 W/m2
01:46 3.9 °C -8.1 °C 1027.3 hPa Calm     41 % 0 mm 0.00 W/m2
01:51 4 °C -7.4 °C 1027.3 hPa Calm     43 % 0 mm 0.00 W/m2
01:56 4.1 °C -6.8 °C 1027.3 hPa Calm     45 % 0 mm 0.00 W/m2
02:01 4.2 °C -8.2 °C 1027.7 hPa Calm     40 % 0 mm 0.00 W/m2
02:06 4.3 °C -8.1 °C 1027.7 hPa Calm     40 % 0 mm 0.00 W/m2
02:11 4.4 °C -7.4 °C 1027.3 hPa Calm     42 % 0 mm 0.00 W/m2
02:16 4.4 °C -7.1 °C 1027.3 hPa Calm     43 % 0 mm 0.00 W/m2
02:21 4.3 °C -7.2 °C 1027.3 hPa Calm     43 % 0 mm 0.00 W/m2
02:26 4.3 °C -6.6 °C 1027.3 hPa Calm     45 % 0 mm 0.00 W/m2
02:31 4.2 °C -6.7 °C 1027.3 hPa NE 3.2 km/h 4.8 km/h 45 % 0 mm 0.00 W/m2
02:36 4.2 °C -6.7 °C 1027.3 hPa ENE 4.8 km/h 6.4 km/h 45 % 0 mm 0.00 W/m2
02:41 4.2 °C -6.1 °C 1027.3 hPa East 3.2 km/h 8 km/h 47 % 0 mm 0.00 W/m2
02:42 4.1 °C -6.4 °C 1027.3 hPa East 8 km/h 9.7 km/h 46 % 0 mm 0.00 W/m2
02:47 4.2 °C -6.7 °C 1027.3 hPa East 6.4 km/h 8 km/h 45 % 0 mm 0.00 W/m2
02:52 4.2 °C -5.8 °C 1027 hPa East 1.6 km/h 8 km/h 48 % 0 mm 0.00 W/m2
02:57 4.3 °C -6.3 °C 1027 hPa Calm   11.3 km/h 46 % 0 mm 0.00 W/m2
03:02 4.3 °C -6.3 °C 1027 hPa Calm   17.7 km/h 46 % 0 mm 0.00 W/m2
03:08 4.5 °C -6.1 °C 1027 hPa East 3.2 km/h 11.3 km/h 46 % 0 mm 0.00 W/m2
03:13 4.6 °C -6.3 °C 1027 hPa East 6.4 km/h 11.3 km/h 45 % 0 mm 0.00 W/m2
03:18 4.7 °C -6.6 °C 1026.6 hPa East 8 km/h 17.7 km/h 44 % 0 mm 0.00 W/m2
03:23 4.7 °C -6.8 °C 1026.6 hPa East 20.9 km/h 20.9 km/h 43 % 0 mm 0.00 W/m2
03:28 4.9 °C -6.9 °C 1026.3 hPa Calm   29 km/h 42 % 0 mm 0.00 W/m2
03:33 5.2 °C -6.1 °C 1026.3 hPa East 29 km/h 40.2 km/h 44 % 0 mm 0.00 W/m2
03:38 5.7 °C -6.9 °C 1026.3 hPa East 14.5 km/h 45.1 km/h 40 % 0 mm 0.00 W/m2
03:43 6.3 °C -7.7 °C 1026.3 hPa ESE 25.7 km/h 51.5 km/h 36 % 0 mm 0.00 W/m2
03:48 7.1 °C -7 °C 1026.3 hPa East 14.5 km/h 45.1 km/h 36 % 0 mm 0.00 W/m2
03:53 7.6 °C -7.7 °C 1026.3 hPa ESE 12.9 km/h 54.7 km/h 33 % 0 mm 0.00 W/m2
03:58 8 °C -7.7 °C 1026.3 hPa SSE 11.3 km/h 49.9 km/h 32 % 0 mm 0.00 W/m2
04:03 8.4 °C -7.8 °C 1026.3 hPa SE 33.8 km/h 53.1 km/h 31 % 0 mm 0.00 W/m2
04:08 8.6 °C -7.6 °C 1026.3 hPa East 9.7 km/h 46.7 km/h 31 % 0 mm 0.00 W/m2
04:13 8.8 °C -7.4 °C 1026.3 hPa East 19.3 km/h 40.2 km/h 31 % 0 mm 0.00 W/m2
04:24 8.9 °C -6.9 °C 1026.6 hPa East 16.1 km/h 38.6 km/h 32 % 0 mm 0.00 W/m2
04:29 8.8 °C -7.4 °C 1026.6 hPa ENE 12.9 km/h 40.2 km/h 31 % 0 mm 0.00 W/m2
04:34 8.8 °C -8.2 °C 1026.3 hPa ENE 38.6 km/h 38.6 km/h 29 % 0 mm 0.00 W/m2
04:39 9 °C -6.8 °C 1026.6 hPa ENE 19.3 km/h 35.4 km/h 32 % 0 mm 0.00 W/m2
04:44 9 °C -8.1 °C 1026.6 hPa Calm   37 km/h 29 % 0 mm 0.00 W/m2
04:49 9.1 °C -8.4 °C 1026.6 hPa ENE 17.7 km/h 33.8 km/h 28 % 0 mm 0.00 W/m2
04:54 9.2 °C -7.9 °C 1026.6 hPa East 14.5 km/h 35.4 km/h 29 % 0 mm 0.00 W/m2
04:59 9.2 °C -9.3 °C 1026.6 hPa East 22.5 km/h 37 km/h 26 % 0 mm 0.00 W/m2
05:04 9.3 °C -8.2 °C 1026.3 hPa ENE 6.4 km/h 29 km/h 28 % 0 mm 0.00 W/m2
05:09 9.4 °C -8.2 °C 1026.3 hPa ENE 30.6 km/h 30.6 km/h 28 % 0 mm 0.00 W/m2
05:14 9.7 °C -7 °C 1026.3 hPa ENE 20.9 km/h 32.2 km/h 30 % 0 mm 0.00 W/m2
05:19 9.8 °C -8.3 °C 1026.3 hPa East 22.5 km/h 37 km/h 27 % 0 mm 0.00 W/m2
05:24 10.2 °C -11.7 °C 1026.3 hPa East 11.3 km/h 41.8 km/h 20 % 0 mm 0.00 W/m2
05:29 10.7 °C -9.1 °C 1026.3 hPa NE 19.3 km/h 40.2 km/h 24 % 0 mm 0.00 W/m2
05:34 10.9 °C -8.3 °C 1026.3 hPa NE 3.2 km/h 32.2 km/h 25 % 0 mm 0.00 W/m2
05:39 10.9 °C -9.4 °C 1026.3 hPa Calm   29 km/h 23 % 0 mm 0.00 W/m2
05:44 10.8 °C -6.9 °C 1026.3 hPa Calm   37 km/h 28 % 0 mm 0.00 W/m2
05:49 10.1 °C -5.8 °C 1026.3 hPa NE 3.2 km/h 8 km/h 32 % 0 mm 0.00 W/m2
05:54 9.6 °C -6.3 °C 1026.3 hPa East 11.3 km/h 45.1 km/h 32 % 0 mm 0.00 W/m2
05:59 9.2 °C -5.8 °C 1026 hPa Calm   19.3 km/h 34 % 0 mm 0.00 W/m2
06:04 8.9 °C -6.5 °C 1026 hPa Calm   40.2 km/h 33 % 0 mm 0.00 W/m2
06:09 8.5 °C -6.4 °C 1026.3 hPa East 22.5 km/h 24.1 km/h 34 % 0 mm 0.00 W/m2
06:14 8.1 °C -6.1 °C 1026.3 hPa East 20.9 km/h 24.1 km/h 36 % 0 mm 0.00 W/m2
06:19 7.8 °C -6.7 °C 1026.3 hPa ENE 9.7 km/h 24.1 km/h 35 % 0 mm 0.00 W/m2
06:24 7.4 °C -7 °C 1026.3 hPa East 8 km/h 29 km/h 35 % 0 mm 0.00 W/m2
06:29 7.2 °C -6.6 °C 1026.3 hPa Calm   22.5 km/h 37 % 0 mm 0.00 W/m2
06:34 6.9 °C -6.1 °C 1026.3 hPa ESE 9.7 km/h 20.9 km/h 39 % 0 mm 0.00 W/m2
06:39 6.6 °C -6.1 °C 1026.3 hPa Calm   29 km/h 40 % 0 mm 0.00 W/m2
06:44 6.3 °C -6.3 °C 1026.3 hPa East 12.9 km/h 24.1 km/h 40 % 0 mm 0.00 W/m2
06:49 6.1 °C -6.2 °C 1026.3 hPa East 11.3 km/h 30.6 km/h 41 % 0 mm 0.00 W/m2
06:54 5.9 °C -6.3 °C 1026.3 hPa SE 14.5 km/h 25.7 km/h 41 % 0 mm 0.00 W/m2
06:59 5.8 °C -6.8 °C 1026.3 hPa ESE 8 km/h 27.4 km/h 40 % 0 mm 0.00 W/m2
07:04 5.7 °C -6.8 °C 1026.3 hPa ESE 9.7 km/h 32.2 km/h 40 % 0 mm 5.00 W/m2
07:09 5.7 °C -6.9 °C 1026.3 hPa Calm   33.8 km/h 40 % 0 mm 7.00 W/m2
07:14 5.7 °C -6.6 °C 1026.3 hPa East 9.7 km/h 30.6 km/h 41 % 0 mm 9.00 W/m2
07:19 5.7 °C -7.2 °C 1026.3 hPa Calm   25.7 km/h 39 % 0 mm 12.00 W/m2
07:24 5.7 °C -6.5 °C 1026.3 hPa ESE 11.3 km/h 29 km/h 41 % 0 mm 14.00 W/m2
07:29 5.7 °C -6.2 °C 1026.3 hPa ESE 9.7 km/h 24.1 km/h 42 % 0 mm 18.00 W/m2
07:34 5.8 °C -6.1 °C 1026.3 hPa ESE 3.2 km/h 29 km/h 42 % 0 mm 25.00 W/m2
07:39 5.9 °C -7.3 °C 1026.3 hPa East 6.4 km/h 30.6 km/h 38 % 0 mm 32.00 W/m2
07:45 6.1 °C -7.2 °C 1026.3 hPa ESE 32.2 km/h 33.8 km/h 38 % 0 mm 37.00 W/m2
07:50 6.3 °C -6.9 °C 1026.6 hPa ESE 1.6 km/h 1.6 km/h 38 % 0 mm 65.00 W/m2
07:55 6.6 °C -7.8 °C 1026.6 hPa SSE 24.1 km/h 33.8 km/h 35 % 0 mm 76.00 W/m2
08:00 6.9 °C -6.8 °C 1026.3 hPa ESE 24.1 km/h 24.1 km/h 37 % 0 mm 91.00 W/m2
08:05 7.1 °C -6.6 °C 1026.3 hPa East 20.9 km/h 30.6 km/h 37 % 0 mm 111.00 W/m2
08:10 7.2 °C -7.2 °C 1026.3 hPa East 16.1 km/h 29 km/h 35 % 0 mm 125.00 W/m2
08:16 7.3 °C -5.4 °C 1026.6 hPa ENE 8 km/h 11.3 km/h 40 % 0 mm 142.00 W/m2
08:21 7.3 °C -6.1 °C 1026.6 hPa Calm   1.6 km/h 38 % 0 mm 162.00 W/m2
08:26 7.4 °C -5.6 °C 1026.6 hPa ESE 9.7 km/h 25.7 km/h 39 % 0 mm 162.00 W/m2
08:31 7.9 °C -7.3 °C 1026.6 hPa ESE 19.3 km/h 27.4 km/h 33 % 0 mm 197.00 W/m2
08:36 8.4 °C -6.9 °C 1026.6 hPa East 11.3 km/h 22.5 km/h 33 % 0 mm 209.00 W/m2
08:41 8.8 °C -8.2 °C 1026.6 hPa SE 11.3 km/h 25.7 km/h 29 % 0 mm 214.00 W/m2
08:51 9.6 °C -8.5 °C 1027 hPa East 8 km/h 25.7 km/h 27 % 0 mm 264.00 W/m2
08:56 9.9 °C -8.7 °C 1027 hPa Calm   12.9 km/h 26 % 0 mm 283.00 W/m2
09:01 10.2 °C -8 °C 1027 hPa East 17.7 km/h 24.1 km/h 27 % 0 mm 299.00 W/m2
09:06 10.3 °C -7.4 °C 1027 hPa ESE 14.5 km/h 37 km/h 28 % 0 mm 315.00 W/m2
09:07 10.3 °C -7.4 °C 1027 hPa East 16.1 km/h 37 km/h 28 % 0 mm 313.00 W/m2
09:12 10.5 °C -7.2 °C 1027 hPa Calm   24.1 km/h 28 % 0 mm 322.00 W/m2
09:16 10.7 °C -7.5 °C 1027 hPa ENE 4.8 km/h 22.5 km/h 27 % 0 mm 339.00 W/m2
09:22 10.9 °C -6.9 °C 1027 hPa ESE 1.6 km/h 3.2 km/h 28 % 0 mm 352.00 W/m2
09:27 11.1 °C -7.2 °C 1027 hPa East 19.3 km/h 37 km/h 27 % 0 mm 360.00 W/m2
09:32 11.3 °C -6.6 °C 1027 hPa Calm   22.5 km/h 28 % 0 mm 369.00 W/m2
09:37 11.4 °C -7.4 °C 1027 hPa ENE 11.3 km/h 24.1 km/h 26 % 0 mm 385.00 W/m2
09:42 11.7 °C -7.2 °C 1027 hPa East 17.7 km/h 29 km/h 26 % 0 mm 396.00 W/m2
09:47 11.9 °C -6.9 °C 1027 hPa East 1.6 km/h 11.3 km/h 26 % 0 mm 406.00 W/m2
09:52 12.2 °C -7.8 °C 1027 hPa East 1.6 km/h 3.2 km/h 24 % 0 mm 417.00 W/m2
09:57 12.3 °C -5.2 °C 1027 hPa East 19.3 km/h 30.6 km/h 29 % 0 mm 424.00 W/m2
10:02 12.3 °C -5.2 °C 1027 hPa ENE 1.6 km/h 6.4 km/h 29 % 0 mm 434.00 W/m2
10:07 12.3 °C -5.2 °C 1027.3 hPa Calm   3.2 km/h 29 % 0 mm 443.00 W/m2
10:12 12.2 °C -5.8 °C 1027.3 hPa Calm   6.4 km/h 28 % 0 mm 450.00 W/m2
10:17 12.3 °C -5.7 °C 1027.3 hPa Calm   1.6 km/h 28 % 0 mm 457.00 W/m2
10:22 12.4 °C -5.6 °C 1027.3 hPa Calm   1.6 km/h 28 % 0 mm 464.00 W/m2
10:27 12.4 °C -3.8 °C 1027.3 hPa Calm     32 % 0 mm 471.00 W/m2
10:32 12.4 °C -2.2 °C 1027 hPa Calm   4.8 km/h 36 % 0 mm 476.00 W/m2
10:37 12.5 °C -3.3 °C 1027 hPa Calm   1.6 km/h 33 % 0 mm 482.00 W/m2
10:42 12.6 °C -3.3 °C 1027 hPa Calm     33 % 0 mm 489.00 W/m2
10:47 12.6 °C -3.7 °C 1027 hPa Calm   3.2 km/h 32 % 0 mm 494.00 W/m2
10:52 12.7 °C -4 °C 1027 hPa Calm   1.6 km/h 31 % 0 mm 497.00 W/m2
10:57 12.8 °C -3.5 °C 1026.6 hPa East 3.2 km/h 4.8 km/h 32 % 0 mm 501.00 W/m2
11:02 12.9 °C -3.4 °C 1026.6 hPa Calm   1.6 km/h 32 % 0 mm 506.00 W/m2
11:04 12.9 °C -3.3 °C 1026.6 hPa Calm   6.4 km/h 32 % 0 mm 508.00 W/m2
11:09 13.2 °C -2.7 °C 1026.6 hPa NE 4.8 km/h 9.7 km/h 33 % 0 mm 513.00 W/m2
11:14 13.3 °C -2.6 °C 1026.3 hPa Calm   4.8 km/h 33 % 0 mm 515.00 W/m2
11:19 13.6 °C -2.8 °C 1026.3 hPa Calm   4.8 km/h 32 % 0 mm 517.00 W/m2
11:24 13.8 °C -1.8 °C 1026.3 hPa NNE 1.6 km/h 3.2 km/h 34 % 0 mm 522.00 W/m2
11:29 13.9 °C -0.9 °C 1026.3 hPa NNE 3.2 km/h 3.2 km/h 36 % 0 mm 522.00 W/m2
11:34 14.1 °C -4.2 °C 1026 hPa Calm   3.2 km/h 28 % 0 mm 524.00 W/m2
11:39 14.3 °C -0.9 °C 1026 hPa North 1.6 km/h 1.6 km/h 35 % 0 mm 526.00 W/m2
11:44 14.3 °C -2.6 °C 1025.6 hPa NNE 6.4 km/h 8 km/h 31 % 0 mm 529.00 W/m2
11:49 14.4 °C -2.1 °C 1025.6 hPa Calm   3.2 km/h 32 % 0 mm 524.00 W/m2
11:54 14.5 °C -1.2 °C 1025.6 hPa Calm   3.2 km/h 34 % 0 mm 524.00 W/m2
12:00 14.6 °C -1.5 °C 1025.6 hPa NNE 1.6 km/h 9.7 km/h 33 % 0 mm 526.00 W/m2
12:05 14.8 °C -3.1 °C 1025.6 hPa Calm   11.3 km/h 29 % 0 mm 526.00 W/m2
12:10 15.1 °C 0.1 °C 1025.6 hPa East 1.6 km/h 11.3 km/h 36 % 0 mm 520.00 W/m2
12:15 15.1 °C -1.5 °C 1025.3 hPa Calm   1.6 km/h 32 % 0 mm 520.00 W/m2
12:20 15.2 °C -2.7 °C 1025.6 hPa Calm   11.3 km/h 29 % 0 mm 519.00 W/m2
12:25 15.3 °C -3.1 °C 1025.3 hPa Calm     28 % 0 mm 513.00 W/m2
12:30 15.4 °C -2.1 °C 1025.3 hPa Calm   1.6 km/h 30 % 0 mm 510.00 W/m2
12:35 15.5 °C -1.6 °C 1025.3 hPa NE 1.6 km/h 6.4 km/h 31 % 0 mm 508.00 W/m2
12:40 15.6 °C -0.7 °C 1025.3 hPa Calm   9.7 km/h 33 % 0 mm 508.00 W/m2
12:45 15.7 °C -2.8 °C 1025.3 hPa Calm   6.4 km/h 28 % 0 mm 504.00 W/m2
12:50 15.7 °C -4.2 °C 1024.9 hPa Calm   14.5 km/h 25 % 0 mm 497.00 W/m2
12:55 15.8 °C -3.1 °C 1024.9 hPa Calm   9.7 km/h 27 % 0 mm 494.00 W/m2
13:00 15.9 °C -3.1 °C 1024.9 hPa ENE 3.2 km/h 4.8 km/h 27 % 0 mm 487.00 W/m2
13:05 15.9 °C -1.6 °C 1024.9 hPa Calm   8 km/h 30 % 0 mm 480.00 W/m2
13:10 15.9 °C -1.2 °C 1024.9 hPa Calm     31 % 0 mm 473.00 W/m2
13:15 15.8 °C -1.7 °C 1024.9 hPa Calm   3.2 km/h 30 % 0 mm 469.00 W/m2
13:20 15.8 °C -3.6 °C 1024.9 hPa Calm     26 % 0 mm 462.00 W/m2
13:30 16.1 °C -1.9 °C 1024.9 hPa Calm     29 % 0 mm 446.00 W/m2
13:35 16.1 °C -1.9 °C 1024.6 hPa Calm   1.6 km/h 29 % 0 mm 438.00 W/m2
13:40 16.1 °C -2.9 °C 1024.6 hPa Calm   4.8 km/h 27 % 0 mm 432.00 W/m2
13:45 16.3 °C -2.7 °C 1024.6 hPa Calm   3.2 km/h 27 % 0 mm 422.00 W/m2
13:50 16.3 °C -1.8 °C 1024.6 hPa Calm   3.2 km/h 29 % 0 mm 411.00 W/m2
13:55 16.1 °C 1.1 °C 1024.6 hPa Calm   3.2 km/h 36 % 0 mm 404.00 W/m2
14:00 15.8 °C 0.8 °C 1024.6 hPa Calm   1.6 km/h 36 % 0 mm 394.00 W/m2
14:05 15.6 °C 1 °C 1024.6 hPa Calm     37 % 0 mm 383.00 W/m2
14:10 15.4 °C 1.2 °C 1024.6 hPa Calm     38 % 0 mm 373.00 W/m2
14:15 15.2 °C 2.3 °C 1024.6 hPa Calm   3.2 km/h 42 % 0 mm 362.00 W/m2
14:20 14.9 °C 2.2 °C 1024.6 hPa North 1.6 km/h 1.6 km/h 42 % 0 mm 350.00 W/m2
14:25 14.7 °C 1.9 °C 1024.6 hPa Calm   3.2 km/h 42 % 0 mm 339.00 W/m2
14:30 14.7 °C 2.6 °C 1024.6 hPa Calm     44 % 0 mm 329.00 W/m2
14:35 14.5 °C 2.4 °C 1024.6 hPa Calm     44 % 0 mm 318.00 W/m2
14:40 14.3 °C 3.5 °C 1024.6 hPa Calm     48 % 0 mm 306.00 W/m2
14:45 14.2 °C 3.7 °C 1024.3 hPa Calm     49 % 0 mm 294.00 W/m2
14:50 14.1 °C 2.9 °C 1024.3 hPa Calm     47 % 0 mm 281.00 W/m2
14:55 14.1 °C 2.6 °C 1024.3 hPa Calm     46 % 0 mm 267.00 W/m2
15:00 13.9 °C 3.7 °C 1024.3 hPa Calm     50 % 0 mm 253.00 W/m2
15:05 13.8 °C 3.9 °C 1024.3 hPa Calm     51 % 0 mm 237.00 W/m2
15:10 13.7 °C 4.1 °C 1024.3 hPa Calm     52 % 0 mm 218.00 W/m2
15:15 13.6 °C 4.4 °C 1024.3 hPa Calm     54 % 0 mm 204.00 W/m2
15:20 13.4 °C 4.6 °C 1024.3 hPa Calm     55 % 0 mm 186.00 W/m2
15:25 13.3 °C 4.7 °C 1024.3 hPa Calm     56 % 0 mm 169.00 W/m2
15:30 13 °C 4.7 °C 1024.3 hPa Calm     57 % 0 mm 151.00 W/m2
15:40 12.6 °C 4.3 °C 1024.3 hPa Calm     57 % 0 mm 114.00 W/m2
15:45 12.4 °C 4.6 °C 1024.3 hPa Calm     59 % 0 mm 98.00 W/m2
15:50 12.2 °C 3.9 °C 1024.3 hPa Calm     57 % 0 mm 84.00 W/m2
15:55 12.1 °C 4.3 °C 1024.3 hPa Calm     59 % 0 mm 70.00 W/m2
16:00 11.8 °C 4.1 °C 1024.3 hPa Calm     59 % 0 mm 56.00 W/m2
16:05 11.6 °C 4.1 °C 1024.3 hPa Calm     60 % 0 mm 44.00 W/m2
16:10 11.4 °C 3.7 °C 1024.3 hPa Calm     59 % 0 mm 33.00 W/m2
16:16 11.2 °C 3.7 °C 1024.3 hPa Calm     60 % 0 mm 23.00 W/m2
16:21 10.9 °C 3.2 °C 1024.3 hPa Calm     59 % 0 mm 16.00 W/m2
16:26 10.8 °C 3.3 °C 1023.9 hPa Calm     60 % 0 mm 12.00 W/m2
16:31 10.6 °C 3.6 °C 1023.9 hPa Calm     62 % 0 mm 11.00 W/m2
16:36 10.4 °C 3.5 °C 1023.9 hPa Calm     62 % 0 mm 9.00 W/m2
16:41 10.3 °C 3.4 °C 1023.9 hPa Calm     62 % 0 mm 7.00 W/m2
16:46 10.2 °C 3.3 °C 1023.9 hPa Calm     62 % 0 mm 5.00 W/m2
16:51 10.1 °C 3.4 °C 1023.9 hPa Calm     63 % 0 mm 0.00 W/m2
16:56 10 °C 3.3 °C 1023.9 hPa Calm     63 % 0 mm 0.00 W/m2
17:01 9.9 °C 3.4 °C 1023.9 hPa Calm     64 % 0 mm 0.00 W/m2
17:06 9.8 °C 3.6 °C 1024.3 hPa Calm     65 % 0 mm 0.00 W/m2
17:11 9.7 °C 3.6 °C 1024.3 hPa Calm     66 % 0 mm 0.00 W/m2
17:16 9.5 °C 3.4 °C 1024.3 hPa Calm     66 % 0 mm 0.00 W/m2
17:21 9.3 °C 3.5 °C 1024.3 hPa Calm     67 % 0 mm 0.00 W/m2
17:26 9.2 °C 3.4 °C 1024.3 hPa Calm     67 % 0 mm 0.00 W/m2
17:31 9.1 °C 3.3 °C 1024.3 hPa Calm     67 % 0 mm 0.00 W/m2
17:36 8.9 °C 3.1 °C 1024.3 hPa Calm     67 % 0 mm 0.00 W/m2
17:41 8.7 °C 3.2 °C 1024.3 hPa Calm     68 % 0 mm 0.00 W/m2
17:46 8.6 °C 2.8 °C 1024.3 hPa Calm     67 % 0 mm 0.00 W/m2
17:51 8.5 °C 2.5 °C 1024.3 hPa Calm     66 % 0 mm 0.00 W/m2
17:56 8.4 °C 2.4 °C 1024.6 hPa Calm     66 % 0 mm 0.00 W/m2
18:01 8.3 °C 2.6 °C 1024.6 hPa Calm     67 % 0 mm 0.00 W/m2
18:06 8.3 °C 2.3 °C 1024.6 hPa Calm     66 % 0 mm 0.00 W/m2
18:11 8.2 °C 2.4 °C 1024.6 hPa Calm     67 % 0 mm 0.00 W/m2
18:16 8.1 °C 2.2 °C 1024.6 hPa Calm     66 % 0 mm 0.00 W/m2
18:21 8 °C 2.1 °C 1024.6 hPa Calm     66 % 0 mm 0.00 W/m2
18:26 7.9 °C 1.9 °C 1024.6 hPa Calm     66 % 0 mm 0.00 W/m2
18:31 7.8 °C 1.9 °C 1024.6 hPa Calm     66 % 0 mm 0.00 W/m2
18:36 7.7 °C 1.7 °C 1024.6 hPa Calm     66 % 0 mm 0.00 W/m2
18:41 7.6 °C 1.9 °C 1024.6 hPa Calm     67 % 0 mm 0.00 W/m2
18:46 7.6 °C 1.8 °C 1024.6 hPa Calm     67 % 0 mm 0.00 W/m2
18:51 7.7 °C 1.9 °C 1024.6 hPa Calm     67 % 0 mm 0.00 W/m2
18:56 7.7 °C 1.1 °C 1024.6 hPa Calm     63 % 0 mm 0.00 W/m2
19:01 7.8 °C 1.6 °C 1024.6 hPa Calm     65 % 0 mm 0.00 W/m2
19:06 7.8 °C 1.7 °C 1024.6 hPa Calm     65 % 0 mm 0.00 W/m2
19:07 7.8 °C 1.4 °C 1024.6 hPa Calm     64 % 0 mm 0.00 W/m2
19:12 7.8 °C 1 °C 1024.6 hPa Calm     62 % 0 mm 0.00 W/m2
19:17 7.8 °C 1.2 °C 1024.6 hPa Calm     63 % 0 mm 0.00 W/m2
19:18 7.8 °C 1.4 °C 1024.6 hPa Calm     64 % 0 mm 0.00 W/m2
19:23 7.8 °C -0.9 °C 1024.6 hPa Calm     54 % 0 mm 0.00 W/m2
19:28 7.7 °C -0.8 °C 1024.6 hPa Calm     55 % 0 mm 0.00 W/m2
19:33 7.7 °C -0.6 °C 1024.6 hPa Calm     56 % 0 mm 0.00 W/m2
19:38 7.6 °C -0.3 °C 1024.9 hPa Calm     57 % 0 mm 0.00 W/m2
19:43 7.6 °C -0.9 °C 1024.9 hPa Calm     55 % 0 mm 0.00 W/m2
19:48 7.4 °C -0.5 °C 1024.9 hPa Calm     57 % 0 mm 0.00 W/m2
19:53 7.4 °C -0.8 °C 1024.9 hPa Calm     56 % 0 mm 0.00 W/m2
19:58 7.4 °C -0.3 °C 1024.9 hPa Calm     58 % 0 mm 0.00 W/m2
20:03 7.4 °C 0.4 °C 1024.9 hPa Calm     61 % 0 mm 0.00 W/m2
20:08 7.4 °C 0.2 °C 1024.9 hPa Calm     60 % 0 mm 0.00 W/m2
20:13 7.4 °C -0.3 °C 1024.9 hPa Calm     58 % 0 mm 0.00 W/m2
20:18 7.4 °C -0.8 °C 1024.9 hPa Calm     56 % 0 mm 0.00 W/m2
20:28 7.4 °C -1.3 °C 1024.9 hPa Calm     54 % 0 mm 0.00 W/m2
20:33 7.4 °C -2.3 °C 1024.9 hPa Calm     50 % 0 mm 0.00 W/m2
20:38 7.5 °C -3.9 °C 1024.9 hPa Calm     44 % 0 mm 0.00 W/m2
20:43 7.6 °C -3 °C 1024.9 hPa Calm     47 % 0 mm 0.00 W/m2
20:48 7.6 °C -3.6 °C 1024.9 hPa Calm     45 % 0 mm 0.00 W/m2
20:53 7.6 °C -3.9 °C 1024.9 hPa Calm     44 % 0 mm 0.00 W/m2
20:58 7.6 °C -4.2 °C 1025.3 hPa Calm     43 % 0 mm 0.00 W/m2
21:03 7.6 °C -3.9 °C 1025.3 hPa Calm     44 % 0 mm 0.00 W/m2
21:08 7.6 °C -4.2 °C 1025.3 hPa Calm     43 % 0 mm 0.00 W/m2
21:13 7.6 °C -3.3 °C 1025.3 hPa Calm     46 % 0 mm 0.00 W/m2
21:18 7.6 °C -4.5 °C 1025.3 hPa Calm     42 % 0 mm 0.00 W/m2
21:23 7.5 °C -3.9 °C 1025.3 hPa Calm     44 % 0 mm 0.00 W/m2
21:29 7.5 °C -2.8 °C 1025.3 hPa Calm     48 % 0 mm 0.00 W/m2
21:34 7.4 °C -2.6 °C 1025.3 hPa Calm     49 % 0 mm 0.00 W/m2
21:39 7.3 °C -2.7 °C 1025.3 hPa Calm     49 % 0 mm 0.00 W/m2
21:49 7.1 °C -2.7 °C 1025.6 hPa Calm     50 % 0 mm 0.00 W/m2
21:54 6.9 °C -2.5 °C 1025.6 hPa Calm     51 % 0 mm 0.00 W/m2
21:59 6.7 °C -3.6 °C 1025.6 hPa Calm     48 % 0 mm 0.00 W/m2
22:04 6.6 °C -2.8 °C 1025.6 hPa Calm     51 % 0 mm 0.00 W/m2
22:09 6.4 °C -3 °C 1025.6 hPa Calm     51 % 0 mm 0.00 W/m2
22:14 6.2 °C -2.7 °C 1025.6 hPa Calm     53 % 0 mm 0.00 W/m2
22:19 6.1 °C -1.8 °C 1026 hPa Calm     57 % 0 mm 0.00 W/m2
22:24 5.9 °C -2.2 °C 1026 hPa Calm     56 % 0 mm 0.00 W/m2
22:29 5.7 °C -1.9 °C 1026 hPa Calm     58 % 0 mm 0.00 W/m2
22:34 5.6 °C -1.8 °C 1026 hPa Calm     59 % 0 mm 0.00 W/m2
22:39 5.5 °C -1.2 °C 1026 hPa Calm     62 % 0 mm 0.00 W/m2
22:44 5.4 °C -0.8 °C 1026 hPa Calm     64 % 0 mm 0.00 W/m2
22:49 5.4 °C -0.2 °C 1026 hPa Calm     67 % 0 mm 0.00 W/m2
22:54 5.3 °C -0.1 °C 1026.3 hPa Calm     68 % 0 mm 0.00 W/m2
22:59 5.3 °C -0.2 °C 1026.3 hPa Calm     68 % 0 mm 0.00 W/m2
23:04 5.3 °C 0.1 °C 1026.3 hPa Calm     69 % 0 mm 0.00 W/m2
23:09 5.2 °C 0.2 °C 1026.3 hPa Calm     70 % 0 mm 0.00 W/m2
23:14 5.2 °C 0.4 °C 1026.3 hPa Calm     71 % 0 mm 0.00 W/m2
23:19 5.2 °C 0.6 °C 1026.3 hPa Calm     72 % 0 mm 0.00 W/m2
23:24 5.2 °C 0.6 °C 1026.3 hPa Calm     72 % 0 mm 0.00 W/m2
23:29 5.2 °C 0.6 °C 1026.3 hPa Calm     72 % 0 mm 0.00 W/m2
23:34 5.1 °C 0.4 °C 1026.3 hPa Calm     72 % 0 mm 0.00 W/m2
23:39 5 °C 0.6 °C 1026.3 hPa Calm     73 % 0 mm 0.00 W/m2
23:44 5 °C 0.4 °C 1026.3 hPa Calm     72 % 0 mm 0.00 W/m2
23:49 4.9 °C 0.1 °C 1026.3 hPa Calm     71 % 0 mm 0.00 W/m2
23:54 4.8 °C 0.2 °C 1026.3 hPa Calm     72 % 0 mm 0.00 W/m2
23:59 4.8 °C 0 °C 1026.3 hPa Calm     71 % 0 mm 0.00 W/m2
Juneau County Weather
Compliments of Weather Underground - 4.5 mb
 WU-history PHP script courtesy of   Juneau County Weather.
powered by Cumulus v1.9.3 (1059)
Ambient Weather VWS v14.00
Top Contact Website Map Copyright © 2007 - 2018 Foresthillweather.com Never base important decisions on this or any weather information obtained from the Internet